createdAt,value
2018-03-08T00:00:47.034Z,33.67
2018-03-08T00:03:14.592Z,32.27
2018-03-08T00:05:42.830Z,32.40
2018-03-08T00:08:12.455Z,32.17
2018-03-08T00:10:40.317Z,33.10
2018-03-08T00:13:08.231Z,31.23
2018-03-08T00:15:35.766Z,31.27
2018-03-08T00:18:03.328Z,31.93
2018-03-08T00:20:30.914Z,31.37
2018-03-08T00:22:58.494Z,31.97
2018-03-08T00:25:26.048Z,32.60
2018-03-08T00:27:53.830Z,31.50
2018-03-08T00:30:21.414Z,31.20
2018-03-08T00:32:48.994Z,31.73
2018-03-08T00:35:16.588Z,31.53
2018-03-08T00:37:44.970Z,31.07
2018-03-08T00:40:12.909Z,29.70
2018-03-08T00:42:40.457Z,31.23
2018-03-08T00:45:08.044Z,30.53
2018-03-08T00:47:35.903Z,32.10
2018-03-08T00:50:03.497Z,30.00
2018-03-08T00:52:31.047Z,28.67
2018-03-08T00:54:58.742Z,29.50
2018-03-08T00:57:26.373Z,31.07
2018-03-08T00:59:53.968Z,30.57
2018-03-08T01:02:22.099Z,34.70
2018-03-08T01:04:49.634Z,28.70
2018-03-08T01:07:17.532Z,32.97
2018-03-08T01:09:45.087Z,30.57
2018-03-08T01:12:12.630Z,31.87
2018-03-08T01:14:40.220Z,38.50
2018-03-08T01:17:07.758Z,34.77
2018-03-08T01:19:35.733Z,39.20
2018-03-08T01:22:03.310Z,36.97
2018-03-08T01:24:31.264Z,39.67
2018-03-08T01:26:58.848Z,41.83
2018-03-08T01:29:26.400Z,40.60
2018-03-08T01:31:53.978Z,42.47
2018-03-08T01:34:21.523Z,39.53
2018-03-08T01:36:49.111Z,41.20
2018-03-08T01:39:16.699Z,39.87
2018-03-08T01:41:44.247Z,36.23
2018-03-08T01:44:11.840Z,40.03
2018-03-08T01:46:39.380Z,42.00
2018-03-08T01:49:06.926Z,39.50
2018-03-08T01:51:34.498Z,41.00
2018-03-08T01:54:02.044Z,42.30
2018-03-08T01:56:29.623Z,40.27
2018-03-08T01:58:57.150Z,41.13
2018-03-08T02:01:24.900Z,36.07
2018-03-08T02:03:52.473Z,37.83
2018-03-08T02:06:20.056Z,41.67
2018-03-08T02:08:47.635Z,39.63
2018-03-08T02:11:15.166Z,38.00
2018-03-08T02:13:42.763Z,37.77
2018-03-08T02:16:10.313Z,36.53
2018-03-08T02:18:37.903Z,34.93
2018-03-08T02:21:05.443Z,36.30
2018-03-08T02:23:32.983Z,34.33
2018-03-08T02:26:00.555Z,32.40
2018-03-08T02:28:28.567Z,34.00
2018-03-08T02:30:56.634Z,33.37
2018-03-08T02:33:24.170Z,33.30
2018-03-08T02:35:52.189Z,32.37
2018-03-08T02:38:20.135Z,31.40
2018-03-08T02:40:47.708Z,30.20
2018-03-08T02:43:15.238Z,29.73
2018-03-08T02:45:42.810Z,29.80
2018-03-08T02:48:10.350Z,30.03
2018-03-08T02:50:37.930Z,29.50
2018-03-08T02:53:05.475Z,29.13
2018-03-08T02:55:33.239Z,28.17
2018-03-08T02:58:00.822Z,27.63
2018-03-08T03:00:28.359Z,27.67
2018-03-08T03:02:55.950Z,30.00
2018-03-08T03:05:23.481Z,30.37
2018-03-08T03:07:51.077Z,31.53
2018-03-08T03:10:18.615Z,31.13
2018-03-08T03:12:46.159Z,29.40
2018-03-08T03:15:13.735Z,30.70
2018-03-08T03:17:41.842Z,33.80
2018-03-08T03:20:09.444Z,30.17
2018-03-08T03:22:36.973Z,31.50
2018-03-08T03:25:04.520Z,30.50
2018-03-08T03:27:32.285Z,29.60
2018-03-08T03:29:59.863Z,27.10
2018-03-08T03:32:27.412Z,27.17
2018-03-08T03:34:55.579Z,28.37
2018-03-08T03:37:23.142Z,27.50
2018-03-08T03:39:50.732Z,26.57
2018-03-08T03:42:18.319Z,25.00
2018-03-08T03:44:45.850Z,26.07
2018-03-08T03:47:13.539Z,24.03
2018-03-08T03:49:41.125Z,25.90
2018-03-08T03:52:08.666Z,25.30
2018-03-08T03:54:36.512Z,24.10
2018-03-08T03:57:04.059Z,24.90
2018-03-08T03:59:31.632Z,24.87
2018-03-08T04:01:59.167Z,24.23
2018-03-08T04:04:26.750Z,24.23
2018-03-08T04:06:54.295Z,23.27
2018-03-08T04:09:21.883Z,23.60
2018-03-08T04:11:49.423Z,23.57
2018-03-08T04:14:17.019Z,22.83
2018-03-08T04:16:44.592Z,23.50
2018-03-08T04:19:12.121Z,22.00
2018-03-08T04:21:39.699Z,22.93
2018-03-08T04:24:07.249Z,22.03
2018-03-08T04:26:34.839Z,20.53
2018-03-08T04:29:02.378Z,22.37
2018-03-08T04:31:29.958Z,19.90
2018-03-08T04:33:57.543Z,20.23
2018-03-08T04:36:25.070Z,20.27
2018-03-08T04:38:52.641Z,19.37
2018-03-08T04:41:20.228Z,17.57
2018-03-08T04:43:47.803Z,17.87
2018-03-08T04:46:15.352Z,16.00
2018-03-08T04:48:42.943Z,17.37
2018-03-08T04:51:10.524Z,17.60
2018-03-08T04:53:38.119Z,16.57
2018-03-08T04:56:05.690Z,16.40
2018-03-08T04:58:33.281Z,17.60
2018-03-08T05:01:00.826Z,17.93
2018-03-08T05:03:28.410Z,17.93
2018-03-08T05:05:56.000Z,19.13
2018-03-08T05:08:23.659Z,19.50
2018-03-08T05:10:51.268Z,19.93
2018-03-08T05:13:18.807Z,21.20
2018-03-08T05:15:46.341Z,21.77
2018-03-08T05:18:13.909Z,22.67
2018-03-08T05:20:41.455Z,19.67
2018-03-08T05:23:09.035Z,18.63
2018-03-08T05:25:36.611Z,19.83
2018-03-08T05:28:04.501Z,20.37
2018-03-08T05:30:32.208Z,18.93
2018-03-08T05:32:59.754Z,19.17
2018-03-08T05:35:27.298Z,18.63
2018-03-08T05:37:54.888Z,19.53
2018-03-08T05:40:22.427Z,17.93
2018-03-08T05:42:50.019Z,20.13
2018-03-08T05:45:17.579Z,17.90
2018-03-08T05:47:45.164Z,18.67
2018-03-08T05:50:12.713Z,18.20
2018-03-08T05:52:40.507Z,18.87
2018-03-08T05:55:09.116Z,19.47
2018-03-08T05:57:37.004Z,21.50
2018-03-08T06:00:04.588Z,21.87
2018-03-08T06:02:32.215Z,33.70
2018-03-08T06:05:00.008Z,20.77
2018-03-08T06:07:27.556Z,23.75
2018-03-08T06:09:55.202Z,24.08
2018-03-08T06:12:22.730Z,38.83
2018-03-08T06:14:50.438Z,28.60
2018-03-08T06:17:18.205Z,24.70
2018-03-08T06:19:46.102Z,27.27
2018-03-08T06:22:13.691Z,27.67
2018-03-08T06:24:41.660Z,27.03
2018-03-08T06:27:09.241Z,29.30
2018-03-08T06:29:36.835Z,27.92
2018-03-08T06:32:05.395Z,25.58
2018-03-08T06:34:33.013Z,24.35
2018-03-08T06:37:00.619Z,22.07
2018-03-08T06:39:28.477Z,23.58
2018-03-08T06:41:56.161Z,19.10
2018-03-08T06:44:23.915Z,18.60
2018-03-08T06:46:51.502Z,20.67
2018-03-08T06:49:19.102Z,17.60
2018-03-08T06:51:46.663Z,22.23
2018-03-08T06:54:14.246Z,25.20
2018-03-08T06:56:42.422Z,31.40
2018-03-08T06:59:10.042Z,34.03
2018-03-08T07:01:37.767Z,32.30
2018-03-08T07:04:06.265Z,39.03
2018-03-08T07:06:33.832Z,33.60
2018-03-08T07:09:01.548Z,24.43
2018-03-08T07:11:29.092Z,27.60
2018-03-08T07:13:56.862Z,26.53
2018-03-08T07:16:24.420Z,27.00
2018-03-08T07:18:52.315Z,26.10
2018-03-08T07:21:20.772Z,25.03
2018-03-08T07:23:48.434Z,24.13
2018-03-08T07:26:16.022Z,25.62
2018-03-08T07:28:43.576Z,21.37
2018-03-08T07:31:11.150Z,19.60
2018-03-08T07:33:38.747Z,22.27
2018-03-08T07:36:06.414Z,18.70
2018-03-08T07:38:34.078Z,20.63
2018-03-08T07:41:03.218Z,20.23
2018-03-08T07:43:32.647Z,19.60
2018-03-08T07:46:00.909Z,17.93
2018-03-08T07:48:28.527Z,18.90
2018-03-08T07:50:56.132Z,18.27
2018-03-08T07:53:23.671Z,16.40
2018-03-08T07:55:52.208Z,15.40
2018-03-08T07:58:19.754Z,25.13
2018-03-08T08:00:47.400Z,16.60
2018-03-08T08:03:15.231Z,14.40
2018-03-08T08:05:54.463Z,12.57
2018-03-08T08:08:33.693Z,9.27
2018-03-08T08:11:01.243Z,10.30
2018-03-08T08:13:28.826Z,11.43
2018-03-08T08:15:56.394Z,11.27
2018-03-08T08:18:23.988Z,19.63
2018-03-08T08:20:51.597Z,19.60
2018-03-08T08:23:19.554Z,12.25
2018-03-08T08:25:47.262Z,11.93
2018-03-08T08:28:14.888Z,11.20
2018-03-08T08:30:43.283Z,10.47
2018-03-08T08:33:11.002Z,9.83
2018-03-08T08:35:39.113Z,8.60
2018-03-08T08:38:06.694Z,8.07
2018-03-08T08:40:34.260Z,8.25
2018-03-08T08:43:01.864Z,8.75
2018-03-08T08:45:29.399Z,7.80
2018-03-08T08:47:56.993Z,8.20
2018-03-08T08:50:24.588Z,9.67
2018-03-08T08:52:52.848Z,10.07
2018-03-08T08:55:20.441Z,10.70
2018-03-08T08:57:47.997Z,11.75
2018-03-08T09:00:15.600Z,10.70
2018-03-08T09:02:43.147Z,11.07
2018-03-08T09:05:10.774Z,11.40
2018-03-08T09:07:38.375Z,14.17
2018-03-08T09:10:05.923Z,12.90
2018-03-08T09:12:33.603Z,12.77
2018-03-08T09:15:01.217Z,11.10
2018-03-08T09:17:28.767Z,13.80
2018-03-08T09:19:56.322Z,12.77
2018-03-08T09:22:24.177Z,12.32
2018-03-08T09:24:51.793Z,12.75
2018-03-08T09:27:19.450Z,13.38
2018-03-08T09:29:47.026Z,12.60
2018-03-08T09:32:14.640Z,11.17
2018-03-08T09:34:42.196Z,12.07
2018-03-08T09:37:09.860Z,11.10
2018-03-08T09:39:37.411Z,11.33
2018-03-08T09:42:04.971Z,12.95
2018-03-08T09:44:32.580Z,13.67
2018-03-08T09:47:00.461Z,13.50
2018-03-08T09:49:28.551Z,16.17
2018-03-08T09:51:56.368Z,16.07
2018-03-08T09:54:23.976Z,14.00
2018-03-08T09:56:51.533Z,15.20
2018-03-08T09:59:19.125Z,13.53
2018-03-08T10:01:46.704Z,14.23
2018-03-08T10:04:15.545Z,12.97
2018-03-08T10:06:43.147Z,12.53
2018-03-08T10:09:10.695Z,12.30
2018-03-08T10:11:38.313Z,12.43
2018-03-08T10:14:05.910Z,11.67
2018-03-08T10:16:33.569Z,12.50
2018-03-08T10:19:01.120Z,11.60
2018-03-08T10:21:44.453Z,10.70
2018-03-08T10:23:56.380Z,11.53
2018-03-08T10:26:23.902Z,11.43
2018-03-08T10:28:51.502Z,11.23
2018-03-08T10:31:20.498Z,11.33
2018-03-08T10:33:48.063Z,11.47
2018-03-08T10:36:15.675Z,11.07
2018-03-08T10:38:43.307Z,10.53
2018-03-08T10:41:10.972Z,12.07
2018-03-08T10:43:38.574Z,13.50
2018-03-08T10:46:06.123Z,12.20
2018-03-08T10:48:34.406Z,12.32
2018-03-08T10:51:02.011Z,12.50
2018-03-08T10:53:30.381Z,13.93
2018-03-08T10:55:58.192Z,13.97
2018-03-08T10:58:25.744Z,13.70
2018-03-08T11:00:55.673Z,13.47
2018-03-08T11:03:30.666Z,12.95
2018-03-08T11:05:58.239Z,13.88
2018-03-08T11:08:26.082Z,13.55
2018-03-08T11:10:53.622Z,12.53
2018-03-08T11:13:21.276Z,12.80
2018-03-08T11:15:48.864Z,10.63
2018-03-08T11:18:16.465Z,11.23
2018-03-08T11:20:44.023Z,10.10
2018-03-08T11:23:11.631Z,11.18
2018-03-08T11:25:40.252Z,10.33
2018-03-08T11:28:07.795Z,10.20
2018-03-08T11:30:35.423Z,10.10
2018-03-08T11:33:02.973Z,10.93
2018-03-08T11:35:30.835Z,12.43
2018-03-08T11:37:58.398Z,11.67
2018-03-08T11:40:25.982Z,9.97
2018-03-08T11:42:54.260Z,11.27
2018-03-08T11:45:21.266Z,10.73
2018-03-08T11:47:48.811Z,10.23
2018-03-08T11:50:16.381Z,11.50
2018-03-08T11:52:44.256Z,9.60
2018-03-08T11:55:11.850Z,10.20
2018-03-08T11:57:39.422Z,10.43
2018-03-08T12:00:07.037Z,11.13
2018-03-08T12:02:35.019Z,10.57
2018-03-08T12:05:02.864Z,10.13
2018-03-08T12:07:30.423Z,10.60
2018-03-08T12:09:58.988Z,10.60
2018-03-08T12:12:26.588Z,10.60
2018-03-08T12:14:54.180Z,9.37
2018-03-08T12:17:21.893Z,10.43
2018-03-08T12:19:49.431Z,9.63
2018-03-08T12:22:17.088Z,9.10
2018-03-08T12:24:44.668Z,9.97
2018-03-08T12:27:12.216Z,8.30
2018-03-08T12:29:39.809Z,8.73
2018-03-08T12:32:07.342Z,8.67
2018-03-08T12:34:35.330Z,9.07
2018-03-08T12:37:02.916Z,7.93
2018-03-08T12:39:30.490Z,9.05
2018-03-08T12:41:58.075Z,8.93
2018-03-08T12:44:25.615Z,8.57
2018-03-08T12:46:53.221Z,9.27
2018-03-08T12:49:20.783Z,10.00
2018-03-08T12:51:48.384Z,10.10
2018-03-08T12:54:16.949Z,9.10
2018-03-08T12:56:44.509Z,9.70
2018-03-08T12:59:12.082Z,8.60
2018-03-08T13:01:41.495Z,8.30
2018-03-08T13:04:09.112Z,10.40
2018-03-08T13:06:36.660Z,11.07
2018-03-08T13:09:04.244Z,9.60
2018-03-08T13:11:31.831Z,13.13
2018-03-08T13:13:59.376Z,10.83
2018-03-08T13:16:27.755Z,9.43
2018-03-08T13:18:55.394Z,8.73
2018-03-08T13:21:22.971Z,8.10
2018-03-08T13:23:50.516Z,8.60
2018-03-08T13:26:18.312Z,8.77
2018-03-08T13:28:45.912Z,8.60
2018-03-08T13:31:13.552Z,8.40
2018-03-08T13:33:41.100Z,9.57
2018-03-08T13:36:08.689Z,10.23
2018-03-08T13:38:36.348Z,8.60
2018-03-08T13:41:04.046Z,7.70
2018-03-08T13:43:31.635Z,8.43
2018-03-08T13:46:00.180Z,8.10
2018-03-08T13:48:27.734Z,8.13
2018-03-08T13:50:55.324Z,9.50
2018-03-08T13:53:22.864Z,8.70
2018-03-08T13:55:50.637Z,8.70
2018-03-08T13:58:18.176Z,8.93
2018-03-08T14:00:45.758Z,9.57
2018-03-08T14:03:13.305Z,9.03
2018-03-08T14:05:41.283Z,8.60
2018-03-08T14:08:08.880Z,9.17
2018-03-08T14:10:36.469Z,8.33
2018-03-08T14:13:04.051Z,8.67
2018-03-08T14:15:31.694Z,8.60
2018-03-08T14:17:59.352Z,8.90
2018-03-08T14:20:26.894Z,8.83
2018-03-08T14:22:54.440Z,8.53
2018-03-08T14:25:22.058Z,8.90
2018-03-08T14:27:49.611Z,9.68
2018-03-08T14:30:17.247Z,9.33
2018-03-08T14:32:45.269Z,8.97
2018-03-08T14:35:12.812Z,9.33
2018-03-08T14:37:40.406Z,9.07
2018-03-08T14:40:08.916Z,8.03
2018-03-08T14:42:38.146Z,8.13
2018-03-08T14:45:06.021Z,9.03
2018-03-08T14:47:34.169Z,11.77
2018-03-08T14:50:01.778Z,11.27
2018-03-08T14:52:29.384Z,10.37
2018-03-08T14:54:56.943Z,10.30
2018-03-08T14:57:24.493Z,9.30
2018-03-08T14:59:52.093Z,9.00
2018-03-08T15:02:20.015Z,11.33
2018-03-08T15:04:47.860Z,10.50
2018-03-08T15:07:15.595Z,9.23
2018-03-08T15:09:43.976Z,9.80
2018-03-08T15:12:11.594Z,10.93
2018-03-08T15:14:39.171Z,9.70
2018-03-08T15:17:06.914Z,8.70
2018-03-08T15:19:35.283Z,9.13
2018-03-08T15:22:02.822Z,11.93
2018-03-08T15:24:30.454Z,13.43
2018-03-08T15:26:58.723Z,16.70
2018-03-08T15:29:26.907Z,18.97
2018-03-08T15:31:54.458Z,15.23
2018-03-08T15:34:22.000Z,16.57
2018-03-08T15:36:49.886Z,16.03
2018-03-08T15:39:17.966Z,19.63
2018-03-08T15:41:45.791Z,19.87
2018-03-08T15:44:13.608Z,20.13
2018-03-08T15:46:41.196Z,19.27
2018-03-08T15:49:08.747Z,21.67
2018-03-08T15:51:37.301Z,18.97
2018-03-08T15:54:04.852Z,18.43
2018-03-08T15:56:32.688Z,20.43
2018-03-08T15:59:00.450Z,22.13
2018-03-08T16:01:28.044Z,19.80
2018-03-08T16:04:00.567Z,19.10
2018-03-08T16:06:39.778Z,19.00
2018-03-08T16:09:07.369Z,20.80
2018-03-08T16:11:35.952Z,17.20
2018-03-08T16:14:03.868Z,16.43
2018-03-08T16:16:31.460Z,18.77
2018-03-08T16:18:59.015Z,19.23
2018-03-08T16:21:42.357Z,18.67
2018-03-08T16:24:09.907Z,21.07
2018-03-08T16:26:37.499Z,22.50
2018-03-08T16:29:05.113Z,29.63
2018-03-08T16:31:33.274Z,26.57
2018-03-08T16:34:00.869Z,30.20
2018-03-08T16:36:29.401Z,30.47
2018-03-08T16:38:56.944Z,19.43
2018-03-08T16:41:24.560Z,17.77
2018-03-08T16:43:52.212Z,16.57
2018-03-08T16:46:19.851Z,17.83
2018-03-08T16:48:47.931Z,18.60
2018-03-08T16:51:15.476Z,18.33
2018-03-08T16:53:43.032Z,17.87
2018-03-08T16:56:10.680Z,17.60
2018-03-08T16:58:38.263Z,18.83
2018-03-08T17:01:05.850Z,16.63
2018-03-08T17:03:33.446Z,18.27
2018-03-08T17:06:01.035Z,17.97
2018-03-08T17:08:29.449Z,16.23
2018-03-08T17:10:57.252Z,15.03
2018-03-08T17:13:24.853Z,14.67
2018-03-08T17:15:53.267Z,14.80
2018-03-08T17:18:20.895Z,13.70
2018-03-08T17:20:48.438Z,12.43
2018-03-08T17:23:16.383Z,10.80
2018-03-08T17:25:44.146Z,11.93
2018-03-08T17:28:11.710Z,10.30
2018-03-08T17:30:40.541Z,9.10
2018-03-08T17:33:08.090Z,10.00
2018-03-08T17:35:35.868Z,8.17
2018-03-08T17:38:03.707Z,9.13
2018-03-08T17:40:31.554Z,9.80
2018-03-08T17:42:59.515Z,7.90
2018-03-08T17:45:27.064Z,7.83
2018-03-08T17:47:55.632Z,7.73
2018-03-08T17:50:23.188Z,7.83
2018-03-08T17:52:50.822Z,6.80
2018-03-08T17:55:18.362Z,6.77
2018-03-08T17:57:45.955Z,7.27
2018-03-08T18:00:13.865Z,8.60
2018-03-08T18:02:42.701Z,9.27
2018-03-08T18:05:10.274Z,8.77
2018-03-08T18:07:38.382Z,9.07
2018-03-08T18:10:06.583Z,9.20
2018-03-08T18:12:34.150Z,8.23
2018-03-08T18:15:01.740Z,8.03
2018-03-08T18:17:30.333Z,8.83
2018-03-08T18:19:58.133Z,8.03
2018-03-08T18:22:26.381Z,8.90
2018-03-08T18:24:53.972Z,8.87
2018-03-08T18:27:22.066Z,8.60
2018-03-08T18:29:49.666Z,7.60
2018-03-08T18:32:17.250Z,6.70
2018-03-08T18:34:44.866Z,7.50
2018-03-08T18:37:12.402Z,7.30
2018-03-08T18:39:40.190Z,7.17
2018-03-08T18:42:07.741Z,7.20
2018-03-08T18:44:36.197Z,6.30
2018-03-08T18:47:03.806Z,7.00
2018-03-08T18:49:31.343Z,7.30
2018-03-08T18:51:59.268Z,6.27
2018-03-08T18:54:26.847Z,6.77
2018-03-08T18:56:55.263Z,6.30
2018-03-08T18:59:23.728Z,6.30
2018-03-08T19:01:51.263Z,5.53
2018-03-08T19:04:18.805Z,5.60
2018-03-08T19:06:46.486Z,5.30
2018-03-08T19:09:14.302Z,6.17
2018-03-08T19:11:41.884Z,6.37
2018-03-08T19:14:09.428Z,6.20
2018-03-08T19:16:37.175Z,5.90
2018-03-08T19:19:04.754Z,5.00
2018-03-08T19:21:32.391Z,5.00
2018-03-08T19:23:59.988Z,5.37
2018-03-08T19:26:27.529Z,4.90
2018-03-08T19:28:56.050Z,4.90
2018-03-08T19:31:23.819Z,5.53
2018-03-08T19:33:51.427Z,4.70
2018-03-08T19:36:19.399Z,4.83
2018-03-08T19:38:47.411Z,4.73
2018-03-08T19:41:14.946Z,4.30
2018-03-08T19:43:42.539Z,4.90
2018-03-08T19:46:11.034Z,4.70
2018-03-08T19:48:38.727Z,5.33
2018-03-08T19:51:06.807Z,4.47
2018-03-08T19:53:34.394Z,5.10
2018-03-08T19:56:02.199Z,4.87
2018-03-08T19:58:29.800Z,5.23
2018-03-08T20:00:57.733Z,4.80
2018-03-08T20:03:25.267Z,4.77
2018-03-08T20:05:52.858Z,5.13
2018-03-08T20:08:20.400Z,4.43
2018-03-08T20:10:48.603Z,4.53
2018-03-08T20:13:16.151Z,4.37
2018-03-08T20:15:43.695Z,5.00
2018-03-08T20:18:11.814Z,4.87
2018-03-08T20:20:39.619Z,4.43
2018-03-08T20:23:07.212Z,4.70
2018-03-08T20:25:34.787Z,4.13
2018-03-08T20:28:02.701Z,4.83
2018-03-08T20:30:30.274Z,4.60
2018-03-08T20:32:58.756Z,4.93
2018-03-08T20:35:26.355Z,4.77
2018-03-08T20:37:53.926Z,4.17
2018-03-08T20:40:21.463Z,3.90
2018-03-08T20:42:49.296Z,4.10
2018-03-08T20:45:16.876Z,3.73
2018-03-08T20:47:44.460Z,4.07
2018-03-08T20:50:12.592Z,3.93
2018-03-08T20:52:40.122Z,4.20
2018-03-08T20:55:08.370Z,4.17
2018-03-08T20:57:36.938Z,4.17
2018-03-08T21:00:04.502Z,3.80
2018-03-08T21:02:32.807Z,3.93
2018-03-08T21:05:00.953Z,3.53
2018-03-08T21:07:28.549Z,4.40
2018-03-08T21:09:56.888Z,4.20
2018-03-08T21:12:25.770Z,3.73
2018-03-08T21:14:53.344Z,3.70
2018-03-08T21:17:20.939Z,3.87
2018-03-08T21:19:48.764Z,3.60
2018-03-08T21:22:16.530Z,3.90
2018-03-08T21:24:44.102Z,3.70
2018-03-08T21:27:12.600Z,3.93
2018-03-08T21:29:40.189Z,3.90
2018-03-08T21:32:07.723Z,2.97
2018-03-08T21:34:36.220Z,3.80
2018-03-08T21:37:06.065Z,4.00
2018-03-08T21:39:33.609Z,4.50
2018-03-08T21:42:01.147Z,4.50
2018-03-08T21:44:29.182Z,3.90
2018-03-08T21:46:56.717Z,4.40
2018-03-08T21:49:24.290Z,3.70
2018-03-08T21:51:52.127Z,4.60
2018-03-08T21:54:19.659Z,4.20
2018-03-08T21:56:47.249Z,4.30
2018-03-08T21:59:14.892Z,4.37
2018-03-08T22:01:42.484Z,4.40
2018-03-08T22:04:10.435Z,4.60
2018-03-08T22:06:38.010Z,4.33
2018-03-08T22:09:05.594Z,4.90
2018-03-08T22:11:33.582Z,4.57
2018-03-08T22:14:01.150Z,4.47
2018-03-08T22:16:28.691Z,4.10
2018-03-08T22:18:56.259Z,4.53
2018-03-08T22:21:23.842Z,4.67
2018-03-08T22:23:51.386Z,4.03
2018-03-08T22:26:18.990Z,4.97
2018-03-08T22:28:46.567Z,4.83
2018-03-08T22:31:14.112Z,4.37
2018-03-08T22:33:42.001Z,4.43
2018-03-08T22:36:09.597Z,5.60
2018-03-08T22:38:37.126Z,5.57
2018-03-08T22:41:04.662Z,6.17
2018-03-08T22:43:32.443Z,5.53
2018-03-08T22:45:59.975Z,6.30
2018-03-08T22:48:27.591Z,6.10
2018-03-08T22:50:55.102Z,4.60
2018-03-08T22:53:22.675Z,5.00
2018-03-08T22:55:50.267Z,5.20
2018-03-08T22:58:17.802Z,5.60
2018-03-08T23:00:45.378Z,5.03
2018-03-08T23:03:18.370Z,5.13
2018-03-08T23:05:45.946Z,4.70
2018-03-08T23:08:13.744Z,5.20
2018-03-08T23:10:41.318Z,4.97
2018-03-08T23:13:08.841Z,4.57
2018-03-08T23:15:36.381Z,4.97
2018-03-08T23:18:04.216Z,4.50
2018-03-08T23:20:31.791Z,4.53
2018-03-08T23:22:59.368Z,4.60
2018-03-08T23:25:26.967Z,4.40
2018-03-08T23:27:54.501Z,4.90
2018-03-08T23:30:22.039Z,4.93
2018-03-08T23:32:50.563Z,4.20
2018-03-08T23:35:18.096Z,4.70
2018-03-08T23:37:45.667Z,4.50
2018-03-08T23:40:13.208Z,4.77
2018-03-08T23:42:40.842Z,5.00
2018-03-08T23:45:08.370Z,4.90
2018-03-08T23:47:36.214Z,4.20
2018-03-08T23:50:03.786Z,4.77
2018-03-08T23:52:31.355Z,4.80
2018-03-08T23:54:59.458Z,4.87
2018-03-08T23:57:26.990Z,6.03
2018-03-08T23:59:54.571Z,5.30
